createdAt,value
2023-10-06T00:00:35.307Z,95624.03
2023-10-06T00:03:07.521Z,95619.91
2023-10-06T00:05:35.104Z,95605.50
2023-10-06T00:08:06.317Z,95607.06
2023-10-06T00:10:33.512Z,95610.34
2023-10-06T00:13:00.717Z,95616.53
2023-10-06T00:15:39.810Z,95621.97
2023-10-06T00:18:13.840Z,95619.47
2023-10-06T00:20:40.899Z,95619.03
2023-10-06T00:23:16.072Z,95614.94
2023-10-06T00:25:44.429Z,95623.03
2023-10-06T00:28:21.377Z,95614.84
2023-10-06T00:30:49.824Z,95625.53
2023-10-06T00:33:17.088Z,95619.03
2023-10-06T00:35:45.586Z,95628.03
2023-10-06T00:38:19.124Z,95614.75
2023-10-06T00:40:57.575Z,95623.56
2023-10-06T00:43:36.507Z,95624.50
2023-10-06T00:46:08.892Z,95631.50
2023-10-06T00:48:41.026Z,95634.50
2023-10-06T00:51:23.592Z,95632.09
2023-10-06T00:53:54.244Z,95627.59
2023-10-06T00:56:25.021Z,95620.22
2023-10-06T00:58:53.640Z,95619.28
2023-10-06T01:01:21.269Z,95614.41
2023-10-06T01:04:02.445Z,95613.81
2023-10-06T01:06:40.476Z,95603.09
2023-10-06T01:09:13.080Z,95619.75
2023-10-06T01:11:47.584Z,95621.41
2023-10-06T01:14:23.379Z,95613.78
2023-10-06T01:16:52.311Z,95617.47
2023-10-06T01:19:25.350Z,95617.81
2023-10-06T01:21:55.319Z,95608.44
2023-10-06T01:24:30.000Z,95600.44
2023-10-06T01:27:01.859Z,95590.13
2023-10-06T01:29:32.363Z,95608.56
2023-10-06T01:32:06.272Z,95615.09
2023-10-06T01:34:40.435Z,95596.91
2023-10-06T01:37:11.752Z,95601.91
2023-10-06T01:39:39.885Z,95613.06
2023-10-06T01:42:09.343Z,95600.63
2023-10-06T01:44:36.554Z,95593.25
2023-10-06T01:47:07.010Z,95607.56
2023-10-06T01:49:38.017Z,95606.84
2023-10-06T01:52:10.008Z,95602.88
2023-10-06T01:54:37.350Z,95591.16
2023-10-06T01:57:12.620Z,95590.66
2023-10-06T01:59:39.557Z,95592.44
2023-10-06T02:02:14.835Z,95583.91
2023-10-06T02:04:46.967Z,95594.47
2023-10-06T02:07:14.542Z,95585.94
2023-10-06T02:09:41.785Z,95590.44
2023-10-06T02:12:09.762Z,95580.84
2023-10-06T02:14:37.359Z,95588.31
2023-10-06T02:17:07.879Z,95577.63
2023-10-06T02:19:35.731Z,95580.31
2023-10-06T02:22:04.853Z,95581.50
2023-10-06T02:24:31.787Z,95570.44
2023-10-06T02:26:59.806Z,95587.91
2023-10-06T02:29:28.222Z,95573.06
2023-10-06T02:32:02.723Z,95581.34
2023-10-06T02:34:36.977Z,95589.44
2023-10-06T02:37:05.803Z,95570.91
2023-10-06T02:39:35.742Z,95576.63
2023-10-06T02:42:09.123Z,95585.63
2023-10-06T02:44:40.666Z,95597.00
2023-10-06T02:47:11.636Z,95580.13
2023-10-06T02:49:42.681Z,95589.94
2023-10-06T02:52:31.168Z,95588.28
2023-10-06T02:55:06.057Z,95580.31
2023-10-06T02:57:37.117Z,95578.94
2023-10-06T03:00:38.655Z,95579.06
2023-10-06T03:03:13.797Z,95570.13
2023-10-06T03:05:41.436Z,95570.84
2023-10-06T03:08:11.315Z,95569.63
2023-10-06T03:10:44.596Z,95565.81
2023-10-06T03:13:44.720Z,95569.59
2023-10-06T03:16:13.015Z,95552.56
2023-10-06T03:18:41.207Z,95568.22
2023-10-06T03:21:17.213Z,95561.28
2023-10-06T03:23:48.822Z,95565.94
2023-10-06T03:26:35.201Z,95565.22
2023-10-06T03:29:12.818Z,95563.78
2023-10-06T03:31:46.551Z,95562.22
2023-10-06T03:34:21.662Z,95565.53
2023-10-06T03:36:53.442Z,95562.94
2023-10-06T03:39:32.352Z,95563.94
2023-10-06T03:42:09.692Z,95565.22
2023-10-06T03:44:36.650Z,95567.53
2023-10-06T03:47:09.163Z,95576.19
2023-10-06T03:49:36.746Z,95557.53
2023-10-06T03:52:11.228Z,95556.50
2023-10-06T03:54:38.668Z,95551.28
2023-10-06T03:59:16.998Z,95559.97
2023-10-06T04:01:47.784Z,95555.28
2023-10-06T04:04:23.811Z,95563.94
2023-10-06T04:06:51.531Z,95560.72
2023-10-06T04:09:29.452Z,95559.78
2023-10-06T04:12:02.820Z,95562.78
2023-10-06T04:14:33.197Z,95556.22
2023-10-06T04:17:02.707Z,95562.72
2023-10-06T04:19:30.517Z,95560.03
2023-10-06T04:21:57.511Z,95556.69
2023-10-06T04:24:24.566Z,95567.53
2023-10-06T04:26:51.522Z,95545.66
2023-10-06T04:29:20.164Z,95560.47
2023-10-06T04:31:47.631Z,95558.81
2023-10-06T04:34:15.466Z,95567.22
2023-10-06T04:36:44.236Z,95563.06
2023-10-06T04:39:17.866Z,95569.00
2023-10-06T04:41:44.966Z,95576.59
2023-10-06T04:44:11.931Z,95569.81
2023-10-06T04:46:39.055Z,95550.72
2023-10-06T04:49:07.163Z,95564.41
2023-10-06T04:51:35.679Z,95564.63
2023-10-06T04:54:04.194Z,95563.16
2023-10-06T04:56:33.963Z,95566.53
2023-10-06T04:59:01.584Z,95551.97
2023-10-06T05:01:32.332Z,95560.84
2023-10-06T05:03:59.527Z,95555.00
2023-10-06T05:06:26.996Z,95567.41
2023-10-06T05:08:53.961Z,95544.00
2023-10-06T05:11:22.051Z,95551.69
2023-10-06T05:13:51.289Z,95552.09
2023-10-06T05:16:20.533Z,95544.53
2023-10-06T05:18:49.088Z,95537.03
2023-10-06T05:21:16.917Z,95552.94
2023-10-06T05:23:46.723Z,95556.16
2023-10-06T05:26:16.777Z,95546.41
2023-10-06T05:28:45.014Z,95549.94
2023-10-06T05:31:13.361Z,95545.97
2023-10-06T05:33:42.450Z,95559.00
2023-10-06T05:36:16.705Z,95553.25
2023-10-06T05:38:46.986Z,95556.56
2023-10-06T05:41:14.709Z,95564.91
2023-10-06T05:43:42.763Z,95566.16
2023-10-06T05:46:11.142Z,95568.94
2023-10-06T05:48:40.036Z,95583.63
2023-10-06T05:51:10.878Z,95580.31
2023-10-06T05:53:45.412Z,95580.63
2023-10-06T05:56:13.458Z,95579.03
2023-10-06T05:58:42.761Z,95578.94
2023-10-06T06:01:19.818Z,95582.69
2023-10-06T06:03:48.172Z,95581.66
2023-10-06T06:06:17.483Z,95578.22
2023-10-06T06:08:49.258Z,95577.59
2023-10-06T06:11:18.375Z,95586.56
2023-10-06T06:13:52.782Z,95585.31
2023-10-06T06:16:23.032Z,95583.66
2023-10-06T06:18:50.252Z,95574.69
2023-10-06T06:21:17.873Z,95573.78
2023-10-06T06:23:47.771Z,95581.34
2023-10-06T06:26:18.540Z,95575.94
2023-10-06T06:28:45.990Z,95595.94
2023-10-06T06:31:20.058Z,95594.50
2023-10-06T06:33:58.624Z,95594.91
2023-10-06T06:36:27.960Z,95601.47
2023-10-06T06:38:55.708Z,95599.16
2023-10-06T06:41:23.075Z,95585.19
2023-10-06T06:43:50.402Z,95574.47
2023-10-06T06:46:18.521Z,95597.78
2023-10-06T06:48:47.375Z,95598.19
2023-10-06T06:51:14.484Z,95597.97
2023-10-06T06:53:41.409Z,95601.81
2023-10-06T06:56:12.261Z,95595.56
2023-10-06T06:58:39.851Z,95616.78
2023-10-06T07:01:16.252Z,95617.50
2023-10-06T07:03:43.751Z,95622.06
2023-10-06T07:06:18.153Z,95623.28
2023-10-06T07:08:48.141Z,95628.78
2023-10-06T07:11:17.248Z,95617.91
2023-10-06T07:13:46.957Z,95609.66
2023-10-06T07:16:16.061Z,95603.97
2023-10-06T07:18:43.282Z,95611.88
2023-10-06T07:21:11.590Z,95598.28
2023-10-06T07:23:41.249Z,95605.28
2023-10-06T07:26:12.612Z,95590.63
2023-10-06T07:28:41.355Z,95602.06
2023-10-06T07:31:15.042Z,95609.69
2023-10-06T07:33:45.652Z,95603.63
2023-10-06T07:36:19.509Z,95600.25
2023-10-06T07:38:47.715Z,95603.34
2023-10-06T07:41:24.978Z,95596.97
2023-10-06T07:43:53.653Z,95599.22
2023-10-06T07:46:20.792Z,95596.69
2023-10-06T07:48:48.306Z,95593.94
2023-10-06T07:51:15.462Z,95586.41
2023-10-06T07:53:42.577Z,95584.59
2023-10-06T07:56:10.171Z,95575.34
2023-10-06T07:58:45.130Z,95585.16
2023-10-06T08:01:14.822Z,95581.97
2023-10-06T08:03:46.914Z,95583.38
2023-10-06T08:06:15.345Z,95578.50
2023-10-06T08:08:42.650Z,95573.88
2023-10-06T08:11:10.761Z,95590.38
2023-10-06T08:13:39.527Z,95578.59
2023-10-06T08:16:09.854Z,95591.13
2023-10-06T08:18:37.076Z,95580.94
2023-10-06T08:21:04.823Z,95586.63
2023-10-06T08:23:33.071Z,95590.91
2023-10-06T08:26:02.661Z,95581.19
2023-10-06T08:28:33.159Z,95584.88
2023-10-06T08:31:04.725Z,95568.34
2023-10-06T08:33:33.181Z,95572.41
2023-10-06T08:36:03.568Z,95568.09
2023-10-06T08:38:31.848Z,95565.81
2023-10-06T08:41:04.891Z,95563.28
2023-10-06T08:43:33.996Z,95568.69
2023-10-06T08:46:02.085Z,95563.25
2023-10-06T08:48:33.963Z,95564.72
2023-10-06T08:51:05.137Z,95564.22
2023-10-06T08:53:33.490Z,95556.56
2023-10-06T08:56:00.542Z,95564.63
2023-10-06T08:58:28.291Z,95565.56
2023-10-06T09:00:57.319Z,95567.31
2023-10-06T09:03:27.564Z,95546.91
2023-10-06T09:05:55.295Z,95544.69
2023-10-06T09:08:22.574Z,95548.66
2023-10-06T09:10:52.349Z,95548.94
2023-10-06T09:13:22.143Z,95550.53
2023-10-06T09:16:09.953Z,95561.69
2023-10-06T09:21:27.485Z,95557.22
2023-10-06T09:23:55.794Z,95554.75
2023-10-06T09:26:33.008Z,95546.47
2023-10-06T09:29:03.540Z,95534.25
2023-10-06T09:31:46.551Z,95540.03
2023-10-06T09:34:25.256Z,95547.75
2023-10-06T09:36:53.072Z,95530.28
2023-10-06T09:39:39.094Z,95535.50
2023-10-06T09:42:11.328Z,95537.22
2023-10-06T09:44:40.996Z,95542.63
2023-10-06T09:47:10.093Z,95535.88
2023-10-06T09:49:38.858Z,95548.50
2023-10-06T09:52:07.155Z,95535.03
2023-10-06T09:54:36.472Z,95534.56
2023-10-06T09:57:04.707Z,95540.03
2023-10-06T09:59:34.415Z,95533.16
2023-10-06T10:02:06.703Z,95531.00
2023-10-06T10:04:34.738Z,95531.44
2023-10-06T10:07:03.659Z,95526.81
2023-10-06T10:09:36.572Z,95519.16
2023-10-06T10:12:18.906Z,95534.09
2023-10-06T10:15:13.473Z,95527.69
2023-10-06T10:18:01.583Z,95526.81
2023-10-06T10:20:28.973Z,95529.34
2023-10-06T10:23:00.597Z,95527.75
2023-10-06T10:25:31.764Z,95524.09
2023-10-06T10:28:20.713Z,95517.22
2023-10-06T10:31:03.031Z,95517.50
2023-10-06T10:33:38.603Z,95521.28
2023-10-06T10:36:15.949Z,95518.94
2023-10-06T10:38:43.908Z,95518.38
2023-10-06T10:41:12.525Z,95518.97
2023-10-06T10:43:42.741Z,95509.59
2023-10-06T10:46:10.359Z,95500.97
2023-10-06T10:48:49.091Z,95498.13
2023-10-06T10:51:16.672Z,95500.59
2023-10-06T10:53:46.820Z,95482.13
2023-10-06T10:56:29.088Z,95498.94
2023-10-06T10:58:56.806Z,95493.63
2023-10-06T11:01:37.649Z,95486.63
2023-10-06T11:04:22.847Z,95486.81
2023-10-06T11:06:51.504Z,95485.72
2023-10-06T11:09:41.269Z,95471.53
2023-10-06T11:12:24.382Z,95476.25
2023-10-06T11:15:04.100Z,95473.25
2023-10-06T11:17:33.526Z,95455.13
2023-10-06T11:20:24.082Z,95464.88
2023-10-06T11:23:03.008Z,95464.44
2023-10-06T11:25:34.448Z,95454.88
2023-10-06T11:28:06.260Z,95446.53
2023-10-06T11:30:35.538Z,95451.19
2023-10-06T11:33:05.280Z,95432.63
2023-10-06T11:35:34.623Z,95448.63
2023-10-06T11:38:04.858Z,95440.81
2023-10-06T11:40:34.077Z,95431.78
2023-10-06T11:43:15.935Z,95428.47
2023-10-06T11:45:44.217Z,95426.16
2023-10-06T11:48:31.189Z,95430.97
2023-10-06T11:51:08.665Z,95424.41
2023-10-06T11:53:38.577Z,95419.19
2023-10-06T11:56:15.218Z,95412.78
2023-10-06T11:58:43.991Z,95418.16
2023-10-06T12:01:34.525Z,95421.25
2023-10-06T12:04:02.393Z,95409.94
2023-10-06T12:06:42.462Z,95412.91
2023-10-06T12:09:14.366Z,95410.53
2023-10-06T12:11:42.076Z,95402.72
2023-10-06T12:14:09.367Z,95396.19
2023-10-06T12:16:37.859Z,95405.50
2023-10-06T12:19:05.079Z,95404.97
2023-10-06T12:21:32.125Z,95396.34
2023-10-06T12:23:59.705Z,95395.72
2023-10-06T12:26:26.725Z,95394.06
2023-10-06T12:28:55.931Z,95392.09
2023-10-06T12:31:23.758Z,95392.47
2023-10-06T12:33:57.168Z,95395.03
2023-10-06T12:36:25.335Z,95392.94
2023-10-06T12:38:52.646Z,95404.13
2023-10-06T12:41:19.786Z,95382.03
2023-10-06T12:43:49.256Z,95394.94
2023-10-06T12:46:17.259Z,95383.03
2023-10-06T12:48:44.325Z,95361.09
2023-10-06T12:51:14.478Z,95399.97
2023-10-06T12:53:42.462Z,95381.06
2023-10-06T12:56:11.152Z,95378.72
2023-10-06T12:58:39.298Z,95368.06
2023-10-06T13:01:09.865Z,95382.16
2023-10-06T13:03:38.142Z,95360.53
2023-10-06T13:06:06.298Z,95383.00
2023-10-06T13:08:34.550Z,95365.81
2023-10-06T13:11:05.230Z,95376.28
2023-10-06T13:13:35.307Z,95371.47
2023-10-06T13:16:10.153Z,95381.94
2023-10-06T13:18:40.045Z,95372.81
2023-10-06T13:21:09.810Z,95370.78
2023-10-06T13:23:38.199Z,95369.22
2023-10-06T13:26:06.267Z,95376.88
2023-10-06T13:28:33.696Z,95360.78
2023-10-06T13:31:00.787Z,95348.09
2023-10-06T13:33:27.915Z,95341.25
2023-10-06T13:35:55.088Z,95352.31
2023-10-06T13:38:23.002Z,95344.63
2023-10-06T13:40:49.988Z,95355.19
2023-10-06T13:43:16.994Z,95350.50
2023-10-06T13:45:46.986Z,95346.75
2023-10-06T13:48:17.474Z,95350.69
2023-10-06T13:50:44.873Z,95338.75
2023-10-06T13:53:11.866Z,95352.63
2023-10-06T13:55:39.056Z,95353.97
2023-10-06T13:58:06.403Z,95340.78
2023-10-06T14:00:34.097Z,95348.88
2023-10-06T14:03:03.025Z,95338.84
2023-10-06T14:05:33.873Z,95341.88
2023-10-06T14:08:05.757Z,95339.84
2023-10-06T14:10:37.372Z,95336.63
2023-10-06T14:13:10.038Z,95333.19
2023-10-06T14:15:46.643Z,95324.84
2023-10-06T14:18:15.660Z,95321.41
2023-10-06T14:20:46.695Z,95330.38
2023-10-06T14:23:15.963Z,95319.06
2023-10-06T14:25:44.209Z,95323.19
2023-10-06T14:28:11.932Z,95337.72
2023-10-06T14:30:44.150Z,95328.59
2023-10-06T14:33:24.048Z,95327.41
2023-10-06T14:36:01.064Z,95331.53
2023-10-06T14:38:34.339Z,95339.75
2023-10-06T14:41:16.450Z,95332.22
2023-10-06T14:44:06.420Z,95324.25
2023-10-06T14:46:34.883Z,95337.13
2023-10-06T14:49:08.721Z,95339.75
2023-10-06T14:51:36.215Z,95324.66
2023-10-06T14:54:05.308Z,95333.78
2023-10-06T14:56:32.916Z,95307.22
2023-10-06T14:59:00.074Z,95326.00
2023-10-06T15:01:32.358Z,95323.81
2023-10-06T15:04:03.198Z,95309.72
2023-10-06T15:06:34.742Z,95319.72
2023-10-06T15:09:01.892Z,95312.34
2023-10-06T15:11:29.729Z,95319.84
2023-10-06T15:13:57.476Z,95323.63
2023-10-06T15:16:24.698Z,95319.00
2023-10-06T15:18:51.978Z,95308.41
2023-10-06T15:21:25.021Z,95327.84
2023-10-06T15:23:54.549Z,95311.28
2023-10-06T15:26:24.797Z,95319.13
2023-10-06T15:28:51.823Z,95323.31
2023-10-06T15:31:18.878Z,95298.47
2023-10-06T15:33:45.962Z,95312.69
2023-10-06T15:36:18.362Z,95328.44
2023-10-06T15:38:48.330Z,95326.56
2023-10-06T15:41:17.297Z,95318.31
2023-10-06T15:43:49.263Z,95318.41
2023-10-06T15:46:21.273Z,95317.56
2023-10-06T15:48:48.284Z,95320.53
2023-10-06T15:51:20.061Z,95321.97
2023-10-06T15:53:47.082Z,95320.75
2023-10-06T15:56:15.846Z,95325.44
2023-10-06T15:58:51.426Z,95333.03
2023-10-06T16:01:19.514Z,95322.84
2023-10-06T16:03:48.848Z,95323.13
2023-10-06T16:06:16.728Z,95323.06
2023-10-06T16:08:45.115Z,95329.13
2023-10-06T16:11:12.588Z,95337.91
2023-10-06T16:13:43.465Z,95319.56
2023-10-06T16:16:17.878Z,95331.78
2023-10-06T16:18:47.965Z,95324.34
2023-10-06T16:21:17.244Z,95324.81
2023-10-06T16:23:48.452Z,95342.56
2023-10-06T16:26:16.158Z,95339.72
2023-10-06T16:28:44.725Z,95322.19
2023-10-06T16:31:12.315Z,95314.41
2023-10-06T16:33:39.429Z,95343.44
2023-10-06T16:36:07.806Z,95324.38
2023-10-06T16:38:35.063Z,95327.28
2023-10-06T16:41:02.889Z,95355.41
2023-10-06T16:43:36.172Z,95336.34
2023-10-06T16:46:04.138Z,95339.25
2023-10-06T16:48:31.267Z,95356.88
2023-10-06T16:50:58.596Z,95354.41
2023-10-06T16:53:25.758Z,95349.47
2023-10-06T16:55:59.744Z,95351.88
2023-10-06T16:58:28.225Z,95352.47
2023-10-06T17:00:58.264Z,95363.69
2023-10-06T17:03:28.208Z,95367.78
2023-10-06T17:05:56.588Z,95365.41
2023-10-06T17:08:23.605Z,95378.28
2023-10-06T17:10:50.984Z,95384.75
2023-10-06T17:13:23.963Z,95385.31
2023-10-06T17:15:51.380Z,95384.56
2023-10-06T17:18:18.474Z,95401.50
2023-10-06T17:20:46.042Z,95400.84
2023-10-06T17:23:13.170Z,95396.81
2023-10-06T17:25:40.837Z,95401.06
2023-10-06T17:28:08.929Z,95399.88
2023-10-06T17:30:37.667Z,95400.19
2023-10-06T17:33:08.573Z,95419.56
2023-10-06T17:35:36.289Z,95404.03
2023-10-06T17:38:03.487Z,95414.50
2023-10-06T17:40:31.164Z,95407.81
2023-10-06T17:42:58.133Z,95407.47
2023-10-06T17:45:26.406Z,95420.31
2023-10-06T17:47:56.608Z,95427.28
2023-10-06T17:50:24.153Z,95429.22
2023-10-06T17:52:51.280Z,95409.72
2023-10-06T17:55:18.686Z,95424.75
2023-10-06T17:57:47.575Z,95419.19
2023-10-06T18:00:17.596Z,95425.97
2023-10-06T18:02:45.055Z,95419.16
2023-10-06T18:05:12.244Z,95444.31
2023-10-06T18:07:39.760Z,95436.50
2023-10-06T18:10:09.870Z,95444.50
2023-10-06T18:12:38.391Z,95434.88
2023-10-06T18:15:07.121Z,95425.66
2023-10-06T18:17:36.795Z,95452.34
2023-10-06T18:20:04.944Z,95444.47
2023-10-06T18:22:32.129Z,95453.44
2023-10-06T18:24:59.140Z,95451.19
2023-10-06T18:27:26.171Z,95446.25
2023-10-06T18:29:53.162Z,95456.00
2023-10-06T18:32:21.617Z,95452.25
2023-10-06T18:34:48.756Z,95468.00
2023-10-06T18:37:15.933Z,95460.28
2023-10-06T18:39:47.805Z,95447.09
2023-10-06T18:42:15.008Z,95451.41
2023-10-06T18:44:42.004Z,95455.56
2023-10-06T18:47:09.038Z,95458.41
2023-10-06T18:49:36.111Z,95459.25
2023-10-06T18:52:03.146Z,95466.03
2023-10-06T18:54:30.934Z,95457.78
2023-10-06T18:56:57.988Z,95469.03
2023-10-06T18:59:25.003Z,95466.88
2023-10-06T19:01:52.027Z,95460.28
2023-10-06T19:04:19.329Z,95468.00
2023-10-06T19:06:46.338Z,95473.13
2023-10-06T19:09:16.572Z,95447.69
2023-10-06T19:11:43.910Z,95467.81
2023-10-06T19:14:11.762Z,95466.81
2023-10-06T19:16:38.941Z,95472.56
2023-10-06T19:19:06.088Z,95468.59
2023-10-06T19:21:33.070Z,95477.31
2023-10-06T19:24:02.827Z,95466.38
2023-10-06T19:26:29.805Z,95479.84
2023-10-06T19:28:58.246Z,95477.66
2023-10-06T19:31:25.368Z,95471.84
2023-10-06T19:33:53.069Z,95475.69
2023-10-06T19:36:23.436Z,95475.44
2023-10-06T19:38:52.057Z,95484.88
2023-10-06T19:41:19.716Z,95477.53
2023-10-06T19:43:46.829Z,95477.84
2023-10-06T19:46:15.650Z,95482.00
2023-10-06T19:48:54.511Z,95475.81
2023-10-06T19:51:22.526Z,95490.66
2023-10-06T19:53:49.584Z,95480.19
2023-10-06T19:56:16.603Z,95481.72
2023-10-06T19:58:44.288Z,95472.25
2023-10-06T20:01:11.371Z,95470.22
2023-10-06T20:03:44.264Z,95472.69
2023-10-06T20:06:12.031Z,95467.53
2023-10-06T20:08:39.051Z,95487.44
2023-10-06T20:11:06.124Z,95480.28
2023-10-06T20:13:34.759Z,95477.88
2023-10-06T20:16:17.645Z,95487.03
2023-10-06T20:18:44.743Z,95474.94
2023-10-06T20:21:14.667Z,95487.41
2023-10-06T20:23:42.046Z,95493.13
2023-10-06T20:26:09.045Z,95485.78
2023-10-06T20:28:36.078Z,95476.16
2023-10-06T20:31:05.600Z,95486.69
2023-10-06T20:33:32.834Z,95482.94
2023-10-06T20:36:02.612Z,95495.66
2023-10-06T20:38:32.591Z,95493.34
2023-10-06T20:40:59.973Z,95491.16
2023-10-06T20:43:27.008Z,95490.19
2023-10-06T20:45:53.984Z,95483.56
2023-10-06T20:48:22.154Z,95485.00
2023-10-06T20:50:49.304Z,95472.97
2023-10-06T20:53:17.517Z,95488.31
2023-10-06T20:55:44.595Z,95488.47
2023-10-06T20:58:12.452Z,95490.56
2023-10-06T21:00:40.432Z,95497.88
2023-10-06T21:03:07.666Z,95498.97
2023-10-06T21:05:36.578Z,95492.91
2023-10-06T21:08:05.154Z,95478.41
2023-10-06T21:10:33.783Z,95490.88
2023-10-06T21:13:01.415Z,95494.44
2023-10-06T21:15:28.388Z,95505.63
2023-10-06T21:17:56.228Z,95501.50
2023-10-06T21:20:23.627Z,95500.25
2023-10-06T21:22:51.524Z,95507.44
2023-10-06T21:25:18.975Z,95504.97
2023-10-06T21:27:47.049Z,95492.81
2023-10-06T21:30:17.613Z,95510.78
2023-10-06T21:32:46.010Z,95498.47
2023-10-06T21:35:16.602Z,95503.28
2023-10-06T21:37:43.919Z,95509.47
2023-10-06T21:40:13.226Z,95516.47
2023-10-06T21:42:41.625Z,95520.19
2023-10-06T21:45:10.245Z,95514.63
2023-10-06T21:47:37.452Z,95505.38
2023-10-06T21:50:04.931Z,95507.03
2023-10-06T21:52:32.615Z,95512.53
2023-10-06T21:55:00.061Z,95504.50
2023-10-06T21:57:31.989Z,95519.81
2023-10-06T21:59:59.115Z,95505.03
2023-10-06T22:02:26.263Z,95508.59
2023-10-06T22:04:54.222Z,95506.50
2023-10-06T22:07:21.223Z,95509.41
2023-10-06T22:09:48.221Z,95515.22
2023-10-06T22:12:16.706Z,95492.84
2023-10-06T22:14:44.019Z,95517.34
2023-10-06T22:17:14.035Z,95501.34
2023-10-06T22:19:42.301Z,95505.19
2023-10-06T22:22:09.458Z,95499.72
2023-10-06T22:24:36.466Z,95511.88
2023-10-06T22:27:08.363Z,95507.25
2023-10-06T22:29:35.940Z,95505.22
2023-10-06T22:32:05.418Z,95510.16
2023-10-06T22:34:33.431Z,95498.91
2023-10-06T22:37:05.259Z,95511.78
2023-10-06T22:39:36.432Z,95503.69
2023-10-06T22:42:05.152Z,95512.50
2023-10-06T22:44:32.372Z,95515.72
2023-10-06T22:46:59.429Z,95499.94
2023-10-06T22:49:26.577Z,95504.72
2023-10-06T22:51:54.811Z,95501.63
2023-10-06T22:54:21.816Z,95506.38
2023-10-06T22:56:48.797Z,95508.09
2023-10-06T22:59:15.856Z,95523.97
2023-10-06T23:01:43.074Z,95508.13
2023-10-06T23:04:10.440Z,95521.41
2023-10-06T23:06:38.976Z,95511.06
2023-10-06T23:09:06.002Z,95505.16
2023-10-06T23:11:32.984Z,95500.53
2023-10-06T23:14:00.045Z,95514.75
2023-10-06T23:16:27.684Z,95503.72
2023-10-06T23:18:56.778Z,95481.03
2023-10-06T23:21:25.958Z,95490.06
2023-10-06T23:23:54.572Z,95470.59
2023-10-06T23:26:21.530Z,95485.31
2023-10-06T23:28:48.517Z,95515.13
2023-10-06T23:31:16.456Z,95489.09
2023-10-06T23:33:43.482Z,95489.13
2023-10-06T23:36:10.465Z,95490.88
2023-10-06T23:38:37.812Z,95495.06
2023-10-06T23:41:09.827Z,95490.88
2023-10-06T23:43:36.796Z,95492.19
2023-10-06T23:46:06.802Z,95496.09
2023-10-06T23:48:33.830Z,95488.25
2023-10-06T23:51:10.488Z,95496.53
2023-10-06T23:53:38.316Z,95497.00
2023-10-06T23:56:20.887Z,95455.88
2023-10-06T23:58:48.000Z,95475.22
